sensor_id;sensor_type;location;lat;lon;timestamp;pressure;altitude;pressure_sealevel;temperature;humidity
9784;BME280;4931;44.874;-1.092;2023-08-24T00:00:40;100886.81;;;27.05;100.00
9784;BME280;4931;44.874;-1.092;2023-08-24T00:03:06;100881.19;;;27.05;100.00
9784;BME280;4931;44.874;-1.092;2023-08-24T00:05:36;100875.13;;;26.99;100.00
9784;BME280;4931;44.874;-1.092;2023-08-24T00:08:06;100873.13;;;27.04;100.00
9784;BME280;4931;44.874;-1.092;2023-08-24T00:10:33;100867.88;;;26.98;100.00
9784;BME280;4931;44.874;-1.092;2023-08-24T00:12:59;100865.88;;;27.03;100.00
9784;BME280;4931;44.874;-1.092;2023-08-24T00:15:24;100867.53;;;27.07;100.00
9784;BME280;4931;44.874;-1.092;2023-08-24T00:17:50;100867.47;;;27.00;100.00
9784;BME280;4931;44.874;-1.092;2023-08-24T00:20:15;100875.13;;;26.99;100.00
9784;BME280;4931;44.874;-1.092;2023-08-24T00:22:41;100866.69;;;26.99;100.00
9784;BME280;4931;44.874;-1.092;2023-08-24T00:25:08;100869.94;;;27.05;100.00
9784;BME280;4931;44.874;-1.092;2023-08-24T00:27:34;100870.03;;;27.16;100.00
9784;BME280;4931;44.874;-1.092;2023-08-24T00:30:02;100870.03;;;27.20;100.00
9784;BME280;4931;44.874;-1.092;2023-08-24T00:32:30;100870.03;;;27.16;100.00
9784;BME280;4931;44.874;-1.092;2023-08-24T00:35:00;100866.44;;;27.26;100.00
9784;BME280;4931;44.874;-1.092;2023-08-24T00:37:26;100864.03;;;27.21;100.00
9784;BME280;4931;44.874;-1.092;2023-08-24T00:39:51;100853.91;;;27.13;100.00
9784;BME280;4931;44.874;-1.092;2023-08-24T00:42:17;100863.03;;;26.95;100.00
9784;BME280;4931;44.874;-1.092;2023-08-24T00:44:42;100853.88;;;27.06;100.00
9784;BME280;4931;44.874;-1.092;2023-08-24T00:47:08;100851.84;;;27.06;100.00
9784;BME280;4931;44.874;-1.092;2023-08-24T00:49:34;100849.47;;;27.12;100.00
9784;BME280;4931;44.874;-1.092;2023-08-24T00:52:00;100845.81;;;27.08;100.00
9784;BME280;4931;44.874;-1.092;2023-08-24T00:54:26;100849.09;;;27.13;100.00
9784;BME280;4931;44.874;-1.092;2023-08-24T00:56:52;100844.31;;;27.21;100.00
9784;BME280;4931;44.874;-1.092;2023-08-24T00:59:18;100846.38;;;27.28;100.00
9784;BME280;4931;44.874;-1.092;2023-08-24T01:01:46;100839.97;;;27.34;100.00
9784;BME280;4931;44.874;-1.092;2023-08-24T01:04:13;100838.00;;;27.39;100.00
9784;BME280;4931;44.874;-1.092;2023-08-24T01:06:38;100840.38;;;27.37;100.00
9784;BME280;4931;44.874;-1.092;2023-08-24T01:09:04;100838.03;;;27.42;100.00
9784;BME280;4931;44.874;-1.092;2023-08-24T01:12:05;100840.47;;;27.47;100.00
9784;BME280;4931;44.874;-1.092;2023-08-24T01:17:23;100832.88;;;27.59;100.00
9784;BME280;4931;44.874;-1.092;2023-08-24T01:19:52;100833.31;;;27.64;100.00
9784;BME280;4931;44.874;-1.092;2023-08-24T01:22:44;100828.81;;;27.56;100.00
9784;BME280;4931;44.874;-1.092;2023-08-24T01:27:43;100830.81;;;27.52;100.00
9784;BME280;4931;44.874;-1.092;2023-08-24T01:30:09;100826.00;;;27.56;100.00
9784;BME280;4931;44.874;-1.092;2023-08-24T01:32:36;100821.91;;;27.39;100.00
9784;BME280;4931;44.874;-1.092;2023-08-24T01:35:07;100826.34;;;27.40;100.00
9784;BME280;4931;44.874;-1.092;2023-08-24T01:37:34;100825.19;;;27.45;100.00
9784;BME280;4931;44.874;-1.092;2023-08-24T01:40:12;100823.13;;;27.42;100.00
9784;BME280;4931;44.874;-1.092;2023-08-24T01:42:45;100818.75;;;27.48;100.00
9784;BME280;4931;44.874;-1.092;2023-08-24T01:45:15;100810.31;;;27.55;100.00
9784;BME280;4931;44.874;-1.092;2023-08-24T01:47:42;100813.91;;;27.45;100.00
9784;BME280;4931;44.874;-1.092;2023-08-24T01:50:09;100813.09;;;27.48;100.00
9784;BME280;4931;44.874;-1.092;2023-08-24T01:52:35;100816.75;;;27.52;100.00
9784;BME280;4931;44.874;-1.092;2023-08-24T01:55:01;100806.22;;;27.42;100.00
9784;BME280;4931;44.874;-1.092;2023-08-24T01:57:26;100809.03;;;27.42;100.00
9784;BME280;4931;44.874;-1.092;2023-08-24T01:59:52;100805.00;;;27.39;100.00
9784;BME280;4931;44.874;-1.092;2023-08-24T02:02:17;100801.03;;;27.44;100.00
9784;BME280;4931;44.874;-1.092;2023-08-24T02:04:43;100796.22;;;27.48;100.00
9784;BME280;4931;44.874;-1.092;2023-08-24T02:07:08;100784.97;;;27.55;100.00
9784;BME280;4931;44.874;-1.092;2023-08-24T02:09:34;100790.56;;;27.48;100.00
9784;BME280;4931;44.874;-1.092;2023-08-24T02:11:59;100789.78;;;27.55;100.00
9784;BME280;4931;44.874;-1.092;2023-08-24T02:14:25;100786.16;;;27.50;100.00
9784;BME280;4931;44.874;-1.092;2023-08-24T02:16:50;100782.53;;;27.54;100.00
9784;BME280;4931;44.874;-1.092;2023-08-24T02:19:16;100780.50;;;27.47;100.00
9784;BME280;4931;44.874;-1.092;2023-08-24T02:21:41;100769.69;;;27.60;100.00
9784;BME280;4931;44.874;-1.092;2023-08-24T02:24:07;100775.31;;;27.56;100.00
9784;BME280;4931;44.874;-1.092;2023-08-24T02:26:32;100783.00;;;27.66;100.00
9784;BME280;4931;44.874;-1.092;2023-08-24T02:28:58;100773.38;;;27.71;100.00
9784;BME280;4931;44.874;-1.092;2023-08-24T02:31:24;100770.50;;;27.64;100.00
9784;BME280;4931;44.874;-1.092;2023-08-24T02:33:50;100775.34;;;27.63;100.00
9784;BME280;4931;44.874;-1.092;2023-08-24T02:36:15;100761.66;;;27.58;100.00
9784;BME280;4931;44.874;-1.092;2023-08-24T02:38:41;100766.06;;;27.63;100.00
9784;BME280;4931;44.874;-1.092;2023-08-24T02:41:07;100762.50;;;27.77;100.00
9784;BME280;4931;44.874;-1.092;2023-08-24T02:43:33;100758.50;;;27.89;100.00
9784;BME280;4931;44.874;-1.092;2023-08-24T02:46:04;100756.81;;;27.62;100.00
9784;BME280;4931;44.874;-1.092;2023-08-24T02:48:30;100756.00;;;27.58;100.00
9784;BME280;4931;44.874;-1.092;2023-08-24T02:51:00;100753.25;;;27.73;100.00
9784;BME280;4931;44.874;-1.092;2023-08-24T02:53:28;100748.00;;;27.75;100.00
9784;BME280;4931;44.874;-1.092;2023-08-24T02:55:55;100750.44;;;27.80;100.00
9784;BME280;4931;44.874;-1.092;2023-08-24T02:58:21;100751.22;;;27.84;100.00
9784;BME280;4931;44.874;-1.092;2023-08-24T03:00:46;100749.25;;;27.85;100.00
9784;BME280;4931;44.874;-1.092;2023-08-24T03:03:14;100752.06;;;27.92;100.00
9784;BME280;4931;44.874;-1.092;2023-08-24T03:05:40;100760.09;;;27.93;100.00
9784;BME280;4931;44.874;-1.092;2023-08-24T03:08:06;100788.25;;;27.79;100.00
9784;BME280;4931;44.874;-1.092;2023-08-24T03:10:35;100807.53;;;27.70;100.00
9784;BME280;4931;44.874;-1.092;2023-08-24T03:13:01;100814.69;;;27.45;100.00
9784;BME280;4931;44.874;-1.092;2023-08-24T03:15:26;100816.34;;;27.50;100.00
9784;BME280;4931;44.874;-1.092;2023-08-24T03:17:52;100814.72;;;27.49;100.00
9784;BME280;4931;44.874;-1.092;2023-08-24T03:20:18;100822.78;;;27.50;100.00
9784;BME280;4931;44.874;-1.092;2023-08-24T03:22:44;100839.56;;;27.36;100.00
9784;BME280;4931;44.874;-1.092;2023-08-24T03:25:10;100850.06;;;27.39;100.00
9784;BME280;4931;44.874;-1.092;2023-08-24T03:27:35;100854.44;;;27.37;100.00
9784;BME280;4931;44.874;-1.092;2023-08-24T03:30:01;100854.91;;;27.39;100.00
9784;BME280;4931;44.874;-1.092;2023-08-24T03:32:29;100843.56;;;27.28;100.00
9784;BME280;4931;44.874;-1.092;2023-08-24T03:34:59;100850.34;;;27.23;100.00
9784;BME280;4931;44.874;-1.092;2023-08-24T03:37:24;100843.19;;;27.33;100.00
9784;BME280;4931;44.874;-1.092;2023-08-24T03:39:50;100826.78;;;27.49;100.00
9784;BME280;4931;44.874;-1.092;2023-08-24T03:42:15;100835.25;;;27.53;100.00
9784;BME280;4931;44.874;-1.092;2023-08-24T03:44:41;100845.28;;;27.47;100.00
9784;BME280;4931;44.874;-1.092;2023-08-24T03:47:06;100858.16;;;27.48;100.00
9784;BME280;4931;44.874;-1.092;2023-08-24T03:49:32;100858.41;;;27.21;100.00
9784;BME280;4931;44.874;-1.092;2023-08-24T03:51:57;100857.91;;;27.12;100.00
9784;BME280;4931;44.874;-1.092;2023-08-24T03:54:23;100849.28;;;27.39;100.00
9784;BME280;4931;44.874;-1.092;2023-08-24T03:56:48;100853.22;;;27.30;100.00
9784;BME280;4931;44.874;-1.092;2023-08-24T03:59:14;100835.09;;;27.24;100.00
9784;BME280;4931;44.874;-1.092;2023-08-24T04:01:39;100835.53;;;27.33;100.00
9784;BME280;4931;44.874;-1.092;2023-08-24T04:04:06;100825.91;;;27.38;100.00
9784;BME280;4931;44.874;-1.092;2023-08-24T04:06:32;100835.97;;;27.36;100.00
9784;BME280;4931;44.874;-1.092;2023-08-24T04:08:57;100841.13;;;27.30;100.00
9784;BME280;4931;44.874;-1.092;2023-08-24T04:11:23;100841.06;;;27.19;100.00
9784;BME280;4931;44.874;-1.092;2023-08-24T04:13:48;100845.88;;;27.15;100.00
9784;BME280;4931;44.874;-1.092;2023-08-24T04:16:14;100846.75;;;27.23;100.00
9784;BME280;4931;44.874;-1.092;2023-08-24T04:18:39;100850.72;;;27.18;100.00
9784;BME280;4931;44.874;-1.092;2023-08-24T04:21:06;100841.00;;;27.12;100.00
9784;BME280;4931;44.874;-1.092;2023-08-24T04:23:31;100827.28;;;26.99;100.00
9784;BME280;4931;44.874;-1.092;2023-08-24T04:25:57;100827.34;;;27.10;100.00
9784;BME280;4931;44.874;-1.092;2023-08-24T04:28:23;100833.69;;;26.96;100.00
9784;BME280;4931;44.874;-1.092;2023-08-24T04:30:53;100818.59;;;27.23;100.00
9784;BME280;4931;44.874;-1.092;2023-08-24T04:33:19;100825.03;;;27.27;100.00
9784;BME280;4931;44.874;-1.092;2023-08-24T04:35:49;100818.56;;;27.19;100.00
9784;BME280;4931;44.874;-1.092;2023-08-24T04:38:15;100832.16;;;27.10;100.00
9784;BME280;4931;44.874;-1.092;2023-08-24T04:40:54;100826.47;;;26.99;100.00
9784;BME280;4931;44.874;-1.092;2023-08-24T04:43:21;100824.34;;;26.85;100.00
9784;BME280;4931;44.874;-1.092;2023-08-24T04:45:51;100826.38;;;26.88;100.00
9784;BME280;4931;44.874;-1.092;2023-08-24T04:48:18;100828.09;;;27.04;100.00
9784;BME280;4931;44.874;-1.092;2023-08-24T04:50:45;100833.69;;;26.96;100.00
9784;BME280;4931;44.874;-1.092;2023-08-24T04:53:14;100829.19;;;26.88;100.00
9784;BME280;4931;44.874;-1.092;2023-08-24T04:55:41;100827.81;;;26.67;100.00
9784;BME280;4931;44.874;-1.092;2023-08-24T04:58:10;100823.78;;;26.65;100.00
9784;BME280;4931;44.874;-1.092;2023-08-24T05:00:37;100809.38;;;26.74;100.00
9784;BME280;4931;44.874;-1.092;2023-08-24T05:03:04;100812.31;;;26.84;100.00
9784;BME280;4931;44.874;-1.092;2023-08-24T05:05:30;100805.81;;;26.77;100.00
9784;BME280;4931;44.874;-1.092;2023-08-24T05:07:57;100810.25;;;26.78;100.00
9784;BME280;4931;44.874;-1.092;2023-08-24T05:10:23;100817.31;;;26.64;100.00
9784;BME280;4931;44.874;-1.092;2023-08-24T05:12:48;100818.06;;;26.58;100.00
9784;BME280;4931;44.874;-1.092;2023-08-24T05:15:17;100813.28;;;26.58;100.00
9784;BME280;4931;44.874;-1.092;2023-08-24T05:17:43;100817.25;;;26.54;100.00
9784;BME280;4931;44.874;-1.092;2023-08-24T05:20:08;100803.22;;;26.57;100.00
9784;BME280;4931;44.874;-1.092;2023-08-24T05:22:40;100802.38;;;26.57;100.00
9784;BME280;4931;44.874;-1.092;2023-08-24T05:25:06;100802.00;;;26.55;100.00
9784;BME280;4931;44.874;-1.092;2023-08-24T05:27:32;100793.22;;;26.63;100.00
9784;BME280;4931;44.874;-1.092;2023-08-24T05:29:57;100793.16;;;26.56;100.00
9784;BME280;4931;44.874;-1.092;2023-08-24T05:32:23;100783.47;;;26.50;100.00
9784;BME280;4931;44.874;-1.092;2023-08-24T05:34:49;100784.13;;;26.32;100.00
9784;BME280;4931;44.874;-1.092;2023-08-24T05:37:15;100780.06;;;26.30;100.00
9784;BME280;4931;44.874;-1.092;2023-08-24T05:39:40;100779.97;;;26.19;100.00
9784;BME280;4931;44.874;-1.092;2023-08-24T05:42:06;100771.16;;;26.21;100.00
9784;BME280;4931;44.874;-1.092;2023-08-24T05:44:31;100770.28;;;26.13;100.00
9784;BME280;4931;44.874;-1.092;2023-08-24T05:46:57;100763.13;;;26.19;100.00
9784;BME280;4931;44.874;-1.092;2023-08-24T05:49:22;100764.88;;;26.34;100.00
9784;BME280;4931;44.874;-1.092;2023-08-24T05:51:52;100759.25;;;26.34;100.00
9784;BME280;4931;44.874;-1.092;2023-08-24T05:54:18;100743.97;;;26.35;100.00
9784;BME280;4931;44.874;-1.092;2023-08-24T05:56:47;100746.78;;;26.35;100.00
9784;BME280;4931;44.874;-1.092;2023-08-24T05:59:13;100753.75;;;26.49;100.00
9784;BME280;4931;44.874;-1.092;2023-08-24T06:01:39;100744.16;;;26.57;100.00
9784;BME280;4931;44.874;-1.092;2023-08-24T06:04:09;100747.38;;;26.59;100.00
9784;BME280;4931;44.874;-1.092;2023-08-24T06:06:35;100747.41;;;26.63;100.00
9784;BME280;4931;44.874;-1.092;2023-08-24T06:09:01;100749.19;;;26.82;100.00
9784;BME280;4931;44.874;-1.092;2023-08-24T06:11:30;100742.91;;;27.07;100.00
9784;BME280;4931;44.874;-1.092;2023-08-24T06:13:55;100730.09;;;27.27;100.00
9784;BME280;4931;44.874;-1.092;2023-08-24T06:16:21;100736.69;;;27.60;100.00
9784;BME280;4931;44.874;-1.092;2023-08-24T06:18:46;100739.19;;;27.87;100.00
9784;BME280;4931;44.874;-1.092;2023-08-24T06:21:12;100748.09;;;28.18;100.00
9784;BME280;4931;44.874;-1.092;2023-08-24T06:23:38;100752.94;;;28.28;100.00
9784;BME280;4931;44.874;-1.092;2023-08-24T06:26:04;100736.81;;;28.47;100.00
9784;BME280;4931;44.874;-1.092;2023-08-24T06:28:30;100739.63;;;28.76;100.00
9784;BME280;4931;44.874;-1.092;2023-08-24T06:30:56;100740.38;;;29.02;100.00
9784;BME280;4931;44.874;-1.092;2023-08-24T06:33:27;100736.34;;;28.95;100.00
9784;BME280;4931;44.874;-1.092;2023-08-24T06:35:53;100756.09;;;29.06;100.00
9784;BME280;4931;44.874;-1.092;2023-08-24T06:38:19;100756.41;;;29.41;100.00
9784;BME280;4931;44.874;-1.092;2023-08-24T06:40:45;100752.75;;;29.44;100.00
9784;BME280;4931;44.874;-1.092;2023-08-24T06:43:10;100749.31;;;29.85;100.00
9784;BME280;4931;44.874;-1.092;2023-08-24T06:45:36;100754.06;;;30.03;100.00
9784;BME280;4931;44.874;-1.092;2023-08-24T06:48:01;100749.28;;;29.92;100.00
9784;BME280;4931;44.874;-1.092;2023-08-24T06:50:28;100739.50;;;30.08;100.00
9784;BME280;4931;44.874;-1.092;2023-08-24T06:52:53;100747.53;;;30.13;100.00
9784;BME280;4931;44.874;-1.092;2023-08-24T06:55:19;100737.56;;;30.46;100.00
9784;BME280;4931;44.874;-1.092;2023-08-24T06:57:48;100735.13;;;30.52;100.00
9784;BME280;4931;44.874;-1.092;2023-08-24T07:00:14;100739.78;;;30.70;100.00
9784;BME280;4931;44.874;-1.092;2023-08-24T07:02:40;100732.84;;;30.33;100.00
9784;BME280;4931;44.874;-1.092;2023-08-24T07:05:06;100734.00;;;30.80;100.00
9784;BME280;4931;44.874;-1.092;2023-08-24T07:07:37;100727.38;;;30.98;100.00
9784;BME280;4931;44.874;-1.092;2023-08-24T07:10:03;100741.63;;;31.25;100.00
9784;BME280;4931;44.874;-1.092;2023-08-24T07:12:29;100730.38;;;31.49;100.00
9784;BME280;4931;44.874;-1.092;2023-08-24T07:14:55;100739.34;;;31.44;100.00
9784;BME280;4931;44.874;-1.092;2023-08-24T07:17:20;100741.34;;;31.78;100.00
9784;BME280;4931;44.874;-1.092;2023-08-24T07:19:46;100739.69;;;31.81;100.00
9784;BME280;4931;44.874;-1.092;2023-08-24T07:22:11;100739.69;;;32.08;100.00
9784;BME280;4931;44.874;-1.092;2023-08-24T07:24:37;100730.38;;;31.80;100.00
9784;BME280;4931;44.874;-1.092;2023-08-24T07:27:02;100732.41;;;32.07;100.00
9784;BME280;4931;44.874;-1.092;2023-08-24T07:29:29;100733.13;;;32.11;100.00
9784;BME280;4931;44.874;-1.092;2023-08-24T07:31:54;100721.91;;;32.04;100.00
9784;BME280;4931;44.874;-1.092;2023-08-24T07:34:20;100724.03;;;32.00;100.00
9784;BME280;4931;44.874;-1.092;2023-08-24T07:36:47;100726.53;;;32.21;100.00
9784;BME280;4931;44.874;-1.092;2023-08-24T07:39:14;100729.75;;;32.23;100.00
9784;BME280;4931;44.874;-1.092;2023-08-24T07:41:41;100727.69;;;31.97;100.00
9784;BME280;4931;44.874;-1.092;2023-08-24T07:44:06;100734.69;;;32.19;100.00
9784;BME280;4931;44.874;-1.092;2023-08-24T07:46:32;100738.78;;;32.62;100.00
9784;BME280;4931;44.874;-1.092;2023-08-24T07:48:58;100734.13;;;32.96;100.00
9784;BME280;4931;44.874;-1.092;2023-08-24T07:51:23;100732.53;;;32.94;100.00
9784;BME280;4931;44.874;-1.092;2023-08-24T07:53:49;100736.25;;;33.12;100.00
9784;BME280;4931;44.874;-1.092;2023-08-24T07:56:17;100733.09;;;33.46;100.00
9784;BME280;4931;44.874;-1.092;2023-08-24T07:58:42;100739.44;;;33.54;100.00
9784;BME280;4931;44.874;-1.092;2023-08-24T08:01:08;100745.34;;;33.03;100.00
9784;BME280;4931;44.874;-1.092;2023-08-24T08:03:33;100739.69;;;33.43;100.00
9784;BME280;4931;44.874;-1.092;2023-08-24T08:06:01;100748.81;;;33.71;100.00
9784;BME280;4931;44.874;-1.092;2023-08-24T08:08:26;100738.47;;;33.81;100.00
9784;BME280;4931;44.874;-1.092;2023-08-24T08:11:02;100742.34;;;33.50;100.00
9784;BME280;4931;44.874;-1.092;2023-08-24T08:13:28;100750.28;;;33.79;100.00
9784;BME280;4931;44.874;-1.092;2023-08-24T08:16:09;100747.78;;;33.81;100.00
9784;BME280;4931;44.874;-1.092;2023-08-24T08:18:36;100750.03;;;33.70;100.00
9784;BME280;4931;44.874;-1.092;2023-08-24T08:21:08;100762.81;;;33.82;100.00
9784;BME280;4931;44.874;-1.092;2023-08-24T08:23:34;100759.03;;;34.21;100.00
9784;BME280;4931;44.874;-1.092;2023-08-24T08:25:59;100765.59;;;34.18;100.00
9784;BME280;4931;44.874;-1.092;2023-08-24T08:28:25;100757.63;;;34.46;100.00
9784;BME280;4931;44.874;-1.092;2023-08-24T08:30:50;100759.66;;;34.46;100.00
9784;BME280;4931;44.874;-1.092;2023-08-24T08:33:16;100767.91;;;34.73;100.00
9784;BME280;4931;44.874;-1.092;2023-08-24T08:35:42;100768.25;;;34.91;100.00
9784;BME280;4931;44.874;-1.092;2023-08-24T08:38:08;100765.06;;;34.73;100.00
9784;BME280;4931;44.874;-1.092;2023-08-24T08:40:37;100763.06;;;35.03;100.00
9784;BME280;4931;44.874;-1.092;2023-08-24T08:43:03;100777.34;;;34.86;100.00
9784;BME280;4931;44.874;-1.092;2023-08-24T08:45:28;100776.97;;;35.43;100.00
9784;BME280;4931;44.874;-1.092;2023-08-24T08:48:01;100789.03;;;35.77;100.00
9784;BME280;4931;44.874;-1.092;2023-08-24T08:50:29;100788.72;;;36.13;100.00
9784;BME280;4931;44.874;-1.092;2023-08-24T08:52:55;100787.78;;;36.16;100.00
9784;BME280;4931;44.874;-1.092;2023-08-24T08:55:21;100798.16;;;36.23;100.00
9784;BME280;4931;44.874;-1.092;2023-08-24T08:57:48;100807.72;;;35.65;100.00
9784;BME280;4931;44.874;-1.092;2023-08-24T09:00:15;100810.47;;;35.68;100.00
9784;BME280;4931;44.874;-1.092;2023-08-24T09:02:45;100819.66;;;36.02;100.00
9784;BME280;4931;44.874;-1.092;2023-08-24T09:05:14;100838.22;;;36.71;100.00
9784;BME280;4931;44.874;-1.092;2023-08-24T09:07:40;100861.56;;;37.04;100.00
9784;BME280;4931;44.874;-1.092;2023-08-24T09:10:06;100876.84;;;37.24;100.00
9784;BME280;4931;44.874;-1.092;2023-08-24T09:12:33;100869.63;;;37.54;100.00
9784;BME280;4931;44.874;-1.092;2023-08-24T09:14:59;100864.16;;;37.69;100.00
9784;BME280;4931;44.874;-1.092;2023-08-24T09:17:25;100846.06;;;37.72;100.00
9784;BME280;4931;44.874;-1.092;2023-08-24T09:19:53;100850.09;;;38.06;99.62
9784;BME280;4931;44.874;-1.092;2023-08-24T09:22:23;100841.00;;;37.76;97.31
9784;BME280;4931;44.874;-1.092;2023-08-24T09:24:48;100847.59;;;37.42;97.84
9784;BME280;4931;44.874;-1.092;2023-08-24T09:27:18;100849.94;;;37.34;96.50
9784;BME280;4931;44.874;-1.092;2023-08-24T09:29:51;100856.84;;;37.68;92.47
9784;BME280;4931;44.874;-1.092;2023-08-24T09:32:24;100856.16;;;37.64;92.59
9784;BME280;4931;44.874;-1.092;2023-08-24T09:34:50;100857.38;;;37.53;92.24
9784;BME280;4931;44.874;-1.092;2023-08-24T09:37:16;100854.19;;;37.51;97.66
9784;BME280;4931;44.874;-1.092;2023-08-24T09:39:42;100850.28;;;37.80;94.65
9784;BME280;4931;44.874;-1.092;2023-08-24T09:42:09;100845.72;;;37.70;93.84
9784;BME280;4931;44.874;-1.092;2023-08-24T09:44:35;100847.50;;;37.99;95.01
9784;BME280;4931;44.874;-1.092;2023-08-24T09:47:00;100849.25;;;38.28;94.84
9784;BME280;4931;44.874;-1.092;2023-08-24T09:49:28;100861.28;;;38.23;94.30
9784;BME280;4931;44.874;-1.092;2023-08-24T09:51:57;100864.19;;;38.32;95.08
9784;BME280;4931;44.874;-1.092;2023-08-24T09:54:26;100864.06;;;38.04;97.77
9784;BME280;4931;44.874;-1.092;2023-08-24T09:56:54;100870.13;;;38.06;100.00
9784;BME280;4931;44.874;-1.092;2023-08-24T09:59:22;100867.88;;;38.01;100.00
9784;BME280;4931;44.874;-1.092;2023-08-24T10:01:50;100865.69;;;38.14;100.00
9784;BME280;4931;44.874;-1.092;2023-08-24T10:04:35;100858.00;;;38.02;100.00
9784;BME280;4931;44.874;-1.092;2023-08-24T10:07:11;100884.75;;;37.19;100.00
9784;BME280;4931;44.874;-1.092;2023-08-24T10:12:14;100884.94;;;37.38;100.00
9784;BME280;4931;44.874;-1.092;2023-08-24T10:14:44;100880.03;;;36.91;100.00
9784;BME280;4931;44.874;-1.092;2023-08-24T10:17:13;100894.41;;;37.00;100.00
9784;BME280;4931;44.874;-1.092;2023-08-24T10:19:41;100891.97;;;37.46;100.00
9784;BME280;4931;44.874;-1.092;2023-08-24T10:22:07;100907.19;;;37.08;100.00
9784;BME280;4931;44.874;-1.092;2023-08-24T10:24:33;100905.66;;;36.55;100.00
9784;BME280;4931;44.874;-1.092;2023-08-24T10:27:01;100894.69;;;36.67;100.00
9784;BME280;4931;44.874;-1.092;2023-08-24T10:29:27;100901.19;;;36.93;100.00
9784;BME280;4931;44.874;-1.092;2023-08-24T10:31:54;100901.97;;;36.68;100.00
9784;BME280;4931;44.874;-1.092;2023-08-24T10:34:20;100907.78;;;37.03;100.00
9784;BME280;4931;44.874;-1.092;2023-08-24T10:36:47;100898.69;;;36.57;100.00
9784;BME280;4931;44.874;-1.092;2023-08-24T10:39:14;100903.22;;;36.28;100.00
9784;BME280;4931;44.874;-1.092;2023-08-24T10:41:50;100907.91;;;36.86;100.00
9784;BME280;4931;44.874;-1.092;2023-08-24T10:44:34;100912.97;;;36.82;100.00
9784;BME280;4931;44.874;-1.092;2023-08-24T10:47:21;100903.31;;;37.02;100.00
9784;BME280;4931;44.874;-1.092;2023-08-24T10:52:45;100893.97;;;36.88;100.00
9784;BME280;4931;44.874;-1.092;2023-08-24T10:55:27;100890.97;;;37.05;100.00
9784;BME280;4931;44.874;-1.092;2023-08-24T10:57:59;100895.09;;;36.78;100.00
9784;BME280;4931;44.874;-1.092;2023-08-24T11:00:29;100889.94;;;37.12;100.00
9784;BME280;4931;44.874;-1.092;2023-08-24T11:02:56;100880.72;;;36.69;100.00
9784;BME280;4931;44.874;-1.092;2023-08-24T11:05:23;100873.03;;;37.27;100.00
9784;BME280;4931;44.874;-1.092;2023-08-24T11:07:57;100865.72;;;37.26;100.00
9784;BME280;4931;44.874;-1.092;2023-08-24T11:10:46;100865.63;;;37.51;100.00
9784;BME280;4931;44.874;-1.092;2023-08-24T11:13:15;100865.88;;;37.22;100.00
9784;BME280;4931;44.874;-1.092;2023-08-24T11:15:46;100856.06;;;37.45;100.00
9784;BME280;4931;44.874;-1.092;2023-08-24T11:20:48;100850.25;;;37.36;100.00
9784;BME280;4931;44.874;-1.092;2023-08-24T11:23:18;100848.31;;;38.40;100.00
9784;BME280;4931;44.874;-1.092;2023-08-24T11:25:45;100841.13;;;38.85;100.00
9784;BME280;4931;44.874;-1.092;2023-08-24T11:28:11;100836.50;;;39.07;98.04
9784;BME280;4931;44.874;-1.092;2023-08-24T11:30:37;100834.06;;;38.68;94.52
9784;BME280;4931;44.874;-1.092;2023-08-24T11:33:02;100828.84;;;38.26;94.73
9784;BME280;4931;44.874;-1.092;2023-08-24T11:35:29;100831.09;;;37.68;96.86
9784;BME280;4931;44.874;-1.092;2023-08-24T11:37:56;100828.41;;;37.42;97.49
9784;BME280;4931;44.874;-1.092;2023-08-24T11:40:22;100833.28;;;37.64;95.87
9784;BME280;4931;44.874;-1.092;2023-08-24T11:42:57;100829.50;;;37.67;95.41
9784;BME280;4931;44.874;-1.092;2023-08-24T11:45:23;100813.38;;;37.82;94.56
9784;BME280;4931;44.874;-1.092;2023-08-24T11:47:50;100813.78;;;38.03;94.45
9784;BME280;4931;44.874;-1.092;2023-08-24T11:50:18;100801.06;;;38.35;87.50
9784;BME280;4931;44.874;-1.092;2023-08-24T11:52:44;100805.06;;;38.57;85.32
9784;BME280;4931;44.874;-1.092;2023-08-24T11:55:10;100793.94;;;38.68;82.85
9784;BME280;4931;44.874;-1.092;2023-08-24T11:57:36;100784.13;;;38.88;66.76
9784;BME280;4931;44.874;-1.092;2023-08-24T12:00:05;100790.31;;;39.32;59.78
9784;BME280;4931;44.874;-1.092;2023-08-24T12:02:33;100785.19;;;39.37;54.29
9784;BME280;4931;44.874;-1.092;2023-08-24T12:04:58;100791.41;;;39.44;53.61
9784;BME280;4931;44.874;-1.092;2023-08-24T12:07:25;100785.50;;;38.55;53.31
9784;BME280;4931;44.874;-1.092;2023-08-24T12:09:51;100786.66;;;38.95;55.01
9784;BME280;4931;44.874;-1.092;2023-08-24T12:12:20;100776.16;;;39.20;43.94
9784;BME280;4931;44.874;-1.092;2023-08-24T12:14:47;100783.72;;;39.50;45.49
9784;BME280;4931;44.874;-1.092;2023-08-24T12:17:15;100785.13;;;40.16;51.43
9784;BME280;4931;44.874;-1.092;2023-08-24T12:19:44;100793.44;;;40.05;53.67
9784;BME280;4931;44.874;-1.092;2023-08-24T12:22:13;100794.63;;;38.91;61.40
9784;BME280;4931;44.874;-1.092;2023-08-24T12:24:43;100798.72;;;38.62;64.72
9784;BME280;4931;44.874;-1.092;2023-08-24T12:27:21;100799.94;;;38.42;71.99
9784;BME280;4931;44.874;-1.092;2023-08-24T12:29:47;100798.13;;;38.76;75.30
9784;BME280;4931;44.874;-1.092;2023-08-24T12:32:13;100800.91;;;37.98;78.44
9784;BME280;4931;44.874;-1.092;2023-08-24T12:34:41;100817.59;;;37.68;84.56
9784;BME280;4931;44.874;-1.092;2023-08-24T12:37:08;100816.13;;;37.19;87.53
9784;BME280;4931;44.874;-1.092;2023-08-24T12:39:38;100813.47;;;37.03;89.59
9784;BME280;4931;44.874;-1.092;2023-08-24T12:42:05;100808.50;;;36.81;90.67
9784;BME280;4931;44.874;-1.092;2023-08-24T12:44:30;100812.47;;;36.36;94.96
9784;BME280;4931;44.874;-1.092;2023-08-24T12:46:56;100806.94;;;37.25;95.07
9784;BME280;4931;44.874;-1.092;2023-08-24T12:49:21;100800.19;;;37.09;93.22
9784;BME280;4931;44.874;-1.092;2023-08-24T12:51:47;100804.94;;;37.12;93.22
9784;BME280;4931;44.874;-1.092;2023-08-24T12:54:13;100812.91;;;36.47;99.91
9784;BME280;4931;44.874;-1.092;2023-08-24T12:56:39;100811.09;;;36.02;100.00
9784;BME280;4931;44.874;-1.092;2023-08-24T12:59:08;100800.19;;;35.84;100.00
9784;BME280;4931;44.874;-1.092;2023-08-24T13:01:34;100800.78;;;36.43;100.00
9784;BME280;4931;44.874;-1.092;2023-08-24T13:03:59;100797.31;;;36.74;100.00
9784;BME280;4931;44.874;-1.092;2023-08-24T13:06:25;100791.28;;;36.59;100.00